sensor_id;sensor_type;location;lat;lon;timestamp;temperature;humidity
30889;DHT22;51092;50.874;7.024;2022-07-11T00:00:55;18.50;90.80
30889;DHT22;51092;50.874;7.024;2022-07-11T00:01:57;18.50;90.60
30889;DHT22;51092;50.874;7.024;2022-07-11T00:03:02;18.50;90.10
30889;DHT22;51092;50.874;7.024;2022-07-11T00:04:04;18.50;90.20
30889;DHT22;51092;50.874;7.024;2022-07-11T00:05:07;18.50;90.10
30889;DHT22;51092;50.874;7.024;2022-07-11T00:06:10;18.60;90.40
30889;DHT22;51092;50.874;7.024;2022-07-11T00:07:13;18.60;89.70
30889;DHT22;51092;50.874;7.024;2022-07-11T00:08:15;18.60;87.60
30889;DHT22;51092;50.874;7.024;2022-07-11T00:09:17;18.60;88.00
30889;DHT22;51092;50.874;7.024;2022-07-11T00:10:18;18.60;89.10
30889;DHT22;51092;50.874;7.024;2022-07-11T00:11:20;18.50;90.30
30889;DHT22;51092;50.874;7.024;2022-07-11T00:12:21;18.50;90.20
30889;DHT22;51092;50.874;7.024;2022-07-11T00:13:28;18.50;90.80
30889;DHT22;51092;50.874;7.024;2022-07-11T00:14:30;18.50;91.20
30889;DHT22;51092;50.874;7.024;2022-07-11T00:15:32;18.50;91.50
30889;DHT22;51092;50.874;7.024;2022-07-11T00:16:34;18.50;91.40
30889;DHT22;51092;50.874;7.024;2022-07-11T00:17:36;18.40;91.50
30889;DHT22;51092;50.874;7.024;2022-07-11T00:18:38;18.40;91.50
30889;DHT22;51092;50.874;7.024;2022-07-11T00:19:40;18.40;91.30
30889;DHT22;51092;50.874;7.024;2022-07-11T00:20:42;18.50;91.30
30889;DHT22;51092;50.874;7.024;2022-07-11T00:21:45;18.60;90.20
30889;DHT22;51092;50.874;7.024;2022-07-11T00:22:46;18.60;90.10
30889;DHT22;51092;50.874;7.024;2022-07-11T00:23:49;18.60;88.90
30889;DHT22;51092;50.874;7.024;2022-07-11T00:24:51;18.60;89.50
30889;DHT22;51092;50.874;7.024;2022-07-11T00:25:53;18.50;90.60
30889;DHT22;51092;50.874;7.024;2022-07-11T00:26:55;18.50;90.80
30889;DHT22;51092;50.874;7.024;2022-07-11T00:27:57;18.50;91.90
30889;DHT22;51092;50.874;7.024;2022-07-11T00:29:00;18.50;91.00
30889;DHT22;51092;50.874;7.024;2022-07-11T00:30:03;18.70;88.20
30889;DHT22;51092;50.874;7.024;2022-07-11T00:31:05;18.60;90.00
30889;DHT22;51092;50.874;7.024;2022-07-11T00:32:09;18.60;91.00
30889;DHT22;51092;50.874;7.024;2022-07-11T00:33:11;18.60;89.00
30889;DHT22;51092;50.874;7.024;2022-07-11T00:34:14;18.70;89.70
30889;DHT22;51092;50.874;7.024;2022-07-11T00:35:15;18.60;88.50
30889;DHT22;51092;50.874;7.024;2022-07-11T00:36:18;18.70;89.30
30889;DHT22;51092;50.874;7.024;2022-07-11T00:37:19;18.80;86.70
30889;DHT22;51092;50.874;7.024;2022-07-11T00:38:22;18.90;84.70
30889;DHT22;51092;50.874;7.024;2022-07-11T00:39:24;19.00;83.10
30889;DHT22;51092;50.874;7.024;2022-07-11T00:40:26;18.90;85.50
30889;DHT22;51092;50.874;7.024;2022-07-11T00:41:28;18.80;86.00
30889;DHT22;51092;50.874;7.024;2022-07-11T00:42:30;18.70;88.20
30889;DHT22;51092;50.874;7.024;2022-07-11T00:43:34;18.60;90.60
30889;DHT22;51092;50.874;7.024;2022-07-11T00:44:38;18.60;90.60
30889;DHT22;51092;50.874;7.024;2022-07-11T00:45:39;18.60;91.00
30889;DHT22;51092;50.874;7.024;2022-07-11T00:46:42;18.50;91.20
30889;DHT22;51092;50.874;7.024;2022-07-11T00:47:44;18.50;91.70
30889;DHT22;51092;50.874;7.024;2022-07-11T00:48:46;18.50;91.60
30889;DHT22;51092;50.874;7.024;2022-07-11T00:49:48;18.60;90.40
30889;DHT22;51092;50.874;7.024;2022-07-11T00:50:51;18.70;89.10
30889;DHT22;51092;50.874;7.024;2022-07-11T00:51:53;18.80;86.20
30889;DHT22;51092;50.874;7.024;2022-07-11T00:52:55;18.80;86.00
30889;DHT22;51092;50.874;7.024;2022-07-11T00:53:58;18.80;85.50
30889;DHT22;51092;50.874;7.024;2022-07-11T00:55:02;18.90;84.60
30889;DHT22;51092;50.874;7.024;2022-07-11T00:56:05;18.90;86.10
30889;DHT22;51092;50.874;7.024;2022-07-11T00:57:09;18.70;89.60
30889;DHT22;51092;50.874;7.024;2022-07-11T00:58:12;18.60;91.10
30889;DHT22;51092;50.874;7.024;2022-07-11T00:59:14;18.50;91.10
30889;DHT22;51092;50.874;7.024;2022-07-11T01:00:21;18.40;93.00
30889;DHT22;51092;50.874;7.024;2022-07-11T01:01:23;18.30;94.10
30889;DHT22;51092;50.874;7.024;2022-07-11T01:02:25;18.30;93.90
30889;DHT22;51092;50.874;7.024;2022-07-11T01:03:27;18.30;93.60
30889;DHT22;51092;50.874;7.024;2022-07-11T01:04:30;18.30;94.20
30889;DHT22;51092;50.874;7.024;2022-07-11T01:05:31;18.30;94.80
30889;DHT22;51092;50.874;7.024;2022-07-11T01:06:34;18.30;94.30
30889;DHT22;51092;50.874;7.024;2022-07-11T01:07:35;18.20;94.70
30889;DHT22;51092;50.874;7.024;2022-07-11T01:08:39;18.20;95.00
30889;DHT22;51092;50.874;7.024;2022-07-11T01:09:41;18.20;95.10
30889;DHT22;51092;50.874;7.024;2022-07-11T01:10:43;18.20;95.20
30889;DHT22;51092;50.874;7.024;2022-07-11T01:11:44;18.20;95.20
30889;DHT22;51092;50.874;7.024;2022-07-11T01:12:46;18.20;95.30
30889;DHT22;51092;50.874;7.024;2022-07-11T01:13:47;18.10;96.80
30889;DHT22;51092;50.874;7.024;2022-07-11T01:14:51;18.10;96.60
30889;DHT22;51092;50.874;7.024;2022-07-11T01:16:11;18.10;96.90
30889;DHT22;51092;50.874;7.024;2022-07-11T01:17:15;18.00;97.70
30889;DHT22;51092;50.874;7.024;2022-07-11T01:18:17;18.00;98.70
30889;DHT22;51092;50.874;7.024;2022-07-11T01:19:19;18.00;97.90
30889;DHT22;51092;50.874;7.024;2022-07-11T01:20:22;18.00;98.70
30889;DHT22;51092;50.874;7.024;2022-07-11T01:21:26;18.10;96.50
30889;DHT22;51092;50.874;7.024;2022-07-11T01:22:30;18.10;96.70
30889;DHT22;51092;50.874;7.024;2022-07-11T01:23:36;18.10;95.80
30889;DHT22;51092;50.874;7.024;2022-07-11T01:24:38;18.10;96.60
30889;DHT22;51092;50.874;7.024;2022-07-11T01:25:41;18.10;97.00
30889;DHT22;51092;50.874;7.024;2022-07-11T01:26:43;18.20;96.70
30889;DHT22;51092;50.874;7.024;2022-07-11T01:27:47;18.30;94.60
30889;DHT22;51092;50.874;7.024;2022-07-11T01:28:49;18.20;93.70
30889;DHT22;51092;50.874;7.024;2022-07-11T01:29:51;18.30;94.60
30889;DHT22;51092;50.874;7.024;2022-07-11T01:30:53;18.20;93.80
30889;DHT22;51092;50.874;7.024;2022-07-11T01:31:55;18.20;95.80
30889;DHT22;51092;50.874;7.024;2022-07-11T01:32:58;18.10;95.70
30889;DHT22;51092;50.874;7.024;2022-07-11T01:33:59;18.20;95.40
30889;DHT22;51092;50.874;7.024;2022-07-11T01:35:01;18.30;94.50
30889;DHT22;51092;50.874;7.024;2022-07-11T01:36:03;18.30;93.10
30889;DHT22;51092;50.874;7.024;2022-07-11T01:37:05;18.40;92.20
30889;DHT22;51092;50.874;7.024;2022-07-11T01:38:07;18.50;92.60
30889;DHT22;51092;50.874;7.024;2022-07-11T01:39:10;18.50;91.70
30889;DHT22;51092;50.874;7.024;2022-07-11T01:40:13;18.50;91.20
30889;DHT22;51092;50.874;7.024;2022-07-11T01:41:15;18.60;90.50
30889;DHT22;51092;50.874;7.024;2022-07-11T01:42:17;18.60;89.90
30889;DHT22;51092;50.874;7.024;2022-07-11T01:43:19;18.50;92.00
30889;DHT22;51092;50.874;7.024;2022-07-11T01:44:21;18.50;92.30
30889;DHT22;51092;50.874;7.024;2022-07-11T01:45:24;18.50;91.70
30889;DHT22;51092;50.874;7.024;2022-07-11T01:46:25;18.50;91.90
30889;DHT22;51092;50.874;7.024;2022-07-11T01:47:28;18.50;90.90
30889;DHT22;51092;50.874;7.024;2022-07-11T01:48:30;18.50;91.00
30889;DHT22;51092;50.874;7.024;2022-07-11T01:49:32;18.50;91.30
30889;DHT22;51092;50.874;7.024;2022-07-11T01:50:34;18.50;91.10
30889;DHT22;51092;50.874;7.024;2022-07-11T01:51:37;18.50;92.30
30889;DHT22;51092;50.874;7.024;2022-07-11T01:52:39;18.40;93.20
30889;DHT22;51092;50.874;7.024;2022-07-11T01:53:41;18.40;92.30
30889;DHT22;51092;50.874;7.024;2022-07-11T01:54:44;18.30;94.30
30889;DHT22;51092;50.874;7.024;2022-07-11T01:55:45;18.20;96.70
30889;DHT22;51092;50.874;7.024;2022-07-11T01:56:48;18.10;96.10
30889;DHT22;51092;50.874;7.024;2022-07-11T01:57:49;18.10;99.00
30889;DHT22;51092;50.874;7.024;2022-07-11T01:58:52;18.10;97.70
30889;DHT22;51092;50.874;7.024;2022-07-11T01:59:55;18.10;96.50
30889;DHT22;51092;50.874;7.024;2022-07-11T02:00:57;18.20;95.80
30889;DHT22;51092;50.874;7.024;2022-07-11T02:01:59;18.20;94.40
30889;DHT22;51092;50.874;7.024;2022-07-11T02:03:01;18.20;96.50
30889;DHT22;51092;50.874;7.024;2022-07-11T02:04:03;18.10;96.50
30889;DHT22;51092;50.874;7.024;2022-07-11T02:05:07;18.20;95.60
30889;DHT22;51092;50.874;7.024;2022-07-11T02:06:09;18.20;95.30
30889;DHT22;51092;50.874;7.024;2022-07-11T02:07:11;18.20;94.50
30889;DHT22;51092;50.874;7.024;2022-07-11T02:08:13;18.20;93.50
30889;DHT22;51092;50.874;7.024;2022-07-11T02:09:14;18.30;93.40
30889;DHT22;51092;50.874;7.024;2022-07-11T02:10:18;18.20;94.10
30889;DHT22;51092;50.874;7.024;2022-07-11T02:11:20;18.20;94.80
30889;DHT22;51092;50.874;7.024;2022-07-11T02:12:23;18.20;94.60
30889;DHT22;51092;50.874;7.024;2022-07-11T02:13:25;18.20;94.90
30889;DHT22;51092;50.874;7.024;2022-07-11T02:14:27;18.20;95.10
30889;DHT22;51092;50.874;7.024;2022-07-11T02:15:29;18.20;95.30
30889;DHT22;51092;50.874;7.024;2022-07-11T02:16:32;18.10;96.40
30889;DHT22;51092;50.874;7.024;2022-07-11T02:17:34;18.10;96.20
30889;DHT22;51092;50.874;7.024;2022-07-11T02:18:36;18.10;96.20
30889;DHT22;51092;50.874;7.024;2022-07-11T02:19:39;18.10;97.10
30889;DHT22;51092;50.874;7.024;2022-07-11T02:20:42;18.00;97.40
30889;DHT22;51092;50.874;7.024;2022-07-11T02:21:43;18.00;99.90
30889;DHT22;51092;50.874;7.024;2022-07-11T02:22:46;17.90;99.70
30889;DHT22;51092;50.874;7.024;2022-07-11T02:23:47;17.90;99.90
30889;DHT22;51092;50.874;7.024;2022-07-11T02:24:50;17.80;99.90
30889;DHT22;51092;50.874;7.024;2022-07-11T02:25:53;17.70;99.90
30889;DHT22;51092;50.874;7.024;2022-07-11T02:26:55;17.60;99.90
30889;DHT22;51092;50.874;7.024;2022-07-11T02:27:57;17.40;99.90
30889;DHT22;51092;50.874;7.024;2022-07-11T02:28:59;17.40;99.90
30889;DHT22;51092;50.874;7.024;2022-07-11T02:30:01;17.50;99.90
30889;DHT22;51092;50.874;7.024;2022-07-11T02:31:04;17.50;99.90
30889;DHT22;51092;50.874;7.024;2022-07-11T02:32:06;17.60;99.90
30889;DHT22;51092;50.874;7.024;2022-07-11T02:33:09;17.60;99.90
30889;DHT22;51092;50.874;7.024;2022-07-11T02:34:12;17.50;99.90
30889;DHT22;51092;50.874;7.024;2022-07-11T02:35:15;17.50;99.90
30889;DHT22;51092;50.874;7.024;2022-07-11T02:36:16;17.60;99.90
30889;DHT22;51092;50.874;7.024;2022-07-11T02:37:19;17.60;99.90
30889;DHT22;51092;50.874;7.024;2022-07-11T02:38:20;17.60;99.90
30889;DHT22;51092;50.874;7.024;2022-07-11T02:39:23;17.60;99.90
30889;DHT22;51092;50.874;7.024;2022-07-11T02:40:26;17.60;99.90
30889;DHT22;51092;50.874;7.024;2022-07-11T02:41:30;17.70;99.90
30889;DHT22;51092;50.874;7.024;2022-07-11T02:42:31;17.70;99.90
30889;DHT22;51092;50.874;7.024;2022-07-11T02:43:34;17.70;99.90
30889;DHT22;51092;50.874;7.024;2022-07-11T02:44:36;17.60;99.90
30889;DHT22;51092;50.874;7.024;2022-07-11T02:45:38;17.70;99.90
30889;DHT22;51092;50.874;7.024;2022-07-11T02:46:41;17.50;99.90
30889;DHT22;51092;50.874;7.024;2022-07-11T02:47:43;17.40;99.90
30889;DHT22;51092;50.874;7.024;2022-07-11T02:48:46;17.40;99.90
30889;DHT22;51092;50.874;7.024;2022-07-11T02:49:48;17.40;99.90
30889;DHT22;51092;50.874;7.024;2022-07-11T02:50:50;17.50;99.90
30889;DHT22;51092;50.874;7.024;2022-07-11T02:51:52;17.50;99.90
30889;DHT22;51092;50.874;7.024;2022-07-11T02:52:55;17.50;99.90
30889;DHT22;51092;50.874;7.024;2022-07-11T02:53:56;17.50;99.90
30889;DHT22;51092;50.874;7.024;2022-07-11T02:54:59;17.40;99.90
30889;DHT22;51092;50.874;7.024;2022-07-11T02:56:01;17.40;99.90
30889;DHT22;51092;50.874;7.024;2022-07-11T02:57:05;17.50;99.90
30889;DHT22;51092;50.874;7.024;2022-07-11T02:58:07;17.30;99.90
30889;DHT22;51092;50.874;7.024;2022-07-11T02:59:09;17.30;99.90
30889;DHT22;51092;50.874;7.024;2022-07-11T03:00:14;17.30;99.90
30889;DHT22;51092;50.874;7.024;2022-07-11T03:01:17;17.30;99.90
30889;DHT22;51092;50.874;7.024;2022-07-11T03:02:20;17.20;99.90
30889;DHT22;51092;50.874;7.024;2022-07-11T03:03:23;17.20;99.90
30889;DHT22;51092;50.874;7.024;2022-07-11T03:04:25;17.20;99.90
30889;DHT22;51092;50.874;7.024;2022-07-11T03:05:27;17.10;99.90
30889;DHT22;51092;50.874;7.024;2022-07-11T03:06:29;17.00;99.90
30889;DHT22;51092;50.874;7.024;2022-07-11T03:07:31;16.90;99.90
30889;DHT22;51092;50.874;7.024;2022-07-11T03:08:33;16.90;99.90
30889;DHT22;51092;50.874;7.024;2022-07-11T03:09:35;17.00;99.90
30889;DHT22;51092;50.874;7.024;2022-07-11T03:10:37;17.00;99.90
30889;DHT22;51092;50.874;7.024;2022-07-11T03:11:40;17.00;99.90
30889;DHT22;51092;50.874;7.024;2022-07-11T03:12:43;16.90;99.90
30889;DHT22;51092;50.874;7.024;2022-07-11T03:13:46;17.00;99.90
30889;DHT22;51092;50.874;7.024;2022-07-11T03:14:48;16.90;99.90
30889;DHT22;51092;50.874;7.024;2022-07-11T03:15:50;16.90;99.90
30889;DHT22;51092;50.874;7.024;2022-07-11T03:16:52;16.80;99.90
30889;DHT22;51092;50.874;7.024;2022-07-11T03:17:55;16.80;99.90
30889;DHT22;51092;50.874;7.024;2022-07-11T03:18:57;16.80;99.90
30889;DHT22;51092;50.874;7.024;2022-07-11T03:20:00;16.70;99.90
30889;DHT22;51092;50.874;7.024;2022-07-11T03:21:02;16.70;99.90
30889;DHT22;51092;50.874;7.024;2022-07-11T03:22:05;16.70;99.90
30889;DHT22;51092;50.874;7.024;2022-07-11T03:23:06;16.70;99.90
30889;DHT22;51092;50.874;7.024;2022-07-11T03:24:09;16.60;99.90
30889;DHT22;51092;50.874;7.024;2022-07-11T03:25:10;16.60;99.90
30889;DHT22;51092;50.874;7.024;2022-07-11T03:26:13;16.60;99.90
30889;DHT22;51092;50.874;7.024;2022-07-11T03:27:14;16.60;99.90
30889;DHT22;51092;50.874;7.024;2022-07-11T03:28:18;16.60;99.90
30889;DHT22;51092;50.874;7.024;2022-07-11T03:29:20;16.50;99.90
30889;DHT22;51092;50.874;7.024;2022-07-11T03:30:23;16.40;99.90
30889;DHT22;51092;50.874;7.024;2022-07-11T03:31:24;16.50;99.90
30889;DHT22;51092;50.874;7.024;2022-07-11T03:32:27;16.40;99.90
30889;DHT22;51092;50.874;7.024;2022-07-11T03:33:28;16.40;99.90
30889;DHT22;51092;50.874;7.024;2022-07-11T03:34:31;16.40;99.90
30889;DHT22;51092;50.874;7.024;2022-07-11T03:35:32;16.40;99.90
30889;DHT22;51092;50.874;7.024;2022-07-11T03:36:44;16.40;99.90
30889;DHT22;51092;50.874;7.024;2022-07-11T03:37:48;16.30;99.90
30889;DHT22;51092;50.874;7.024;2022-07-11T03:38:49;16.30;99.90
30889;DHT22;51092;50.874;7.024;2022-07-11T03:39:52;16.30;99.90
30889;DHT22;51092;50.874;7.024;2022-07-11T03:40:53;16.30;99.90
30889;DHT22;51092;50.874;7.024;2022-07-11T03:41:57;16.30;99.90
30889;DHT22;51092;50.874;7.024;2022-07-11T03:42:59;16.30;99.90
30889;DHT22;51092;50.874;7.024;2022-07-11T03:44:03;16.30;99.90
30889;DHT22;51092;50.874;7.024;2022-07-11T03:45:06;16.30;99.90
30889;DHT22;51092;50.874;7.024;2022-07-11T03:46:09;16.30;99.90
30889;DHT22;51092;50.874;7.024;2022-07-11T03:47:11;16.30;99.90
30889;DHT22;51092;50.874;7.024;2022-07-11T03:48:14;16.30;99.90
30889;DHT22;51092;50.874;7.024;2022-07-11T03:49:16;16.30;99.90
30889;DHT22;51092;50.874;7.024;2022-07-11T03:50:18;16.30;99.90
30889;DHT22;51092;50.874;7.024;2022-07-11T03:51:20;16.30;99.90
30889;DHT22;51092;50.874;7.024;2022-07-11T03:52:22;16.40;99.90
30889;DHT22;51092;50.874;7.024;2022-07-11T03:53:24;16.40;99.90
30889;DHT22;51092;50.874;7.024;2022-07-11T03:54:26;16.50;99.90
30889;DHT22;51092;50.874;7.024;2022-07-11T03:55:28;16.60;99.90
30889;DHT22;51092;50.874;7.024;2022-07-11T03:56:30;16.60;99.90
30889;DHT22;51092;50.874;7.024;2022-07-11T03:57:32;16.60;99.90
30889;DHT22;51092;50.874;7.024;2022-07-11T03:58:35;16.50;99.90
30889;DHT22;51092;50.874;7.024;2022-07-11T03:59:37;16.50;99.90
30889;DHT22;51092;50.874;7.024;2022-07-11T04:00:39;16.40;99.90
30889;DHT22;51092;50.874;7.024;2022-07-11T04:01:40;16.40;99.90
30889;DHT22;51092;50.874;7.024;2022-07-11T04:02:43;16.30;99.90
30889;DHT22;51092;50.874;7.024;2022-07-11T04:03:44;16.30;99.90
30889;DHT22;51092;50.874;7.024;2022-07-11T04:04:47;16.30;99.90
30889;DHT22;51092;50.874;7.024;2022-07-11T04:05:49;16.30;99.90
30889;DHT22;51092;50.874;7.024;2022-07-11T04:06:51;16.30;99.90
30889;DHT22;51092;50.874;7.024;2022-07-11T04:07:53;16.30;99.90
30889;DHT22;51092;50.874;7.024;2022-07-11T04:08:56;16.30;99.90
30889;DHT22;51092;50.874;7.024;2022-07-11T04:09:57;16.30;99.90
30889;DHT22;51092;50.874;7.024;2022-07-11T04:11:00;16.40;99.90
30889;DHT22;51092;50.874;7.024;2022-07-11T04:12:01;16.40;99.90
30889;DHT22;51092;50.874;7.024;2022-07-11T04:13:04;16.60;99.90
30889;DHT22;51092;50.874;7.024;2022-07-11T04:14:05;16.60;99.90
30889;DHT22;51092;50.874;7.024;2022-07-11T04:15:10;16.40;99.90
30889;DHT22;51092;50.874;7.024;2022-07-11T04:16:12;16.40;99.90
30889;DHT22;51092;50.874;7.024;2022-07-11T04:17:14;16.40;99.90
30889;DHT22;51092;50.874;7.024;2022-07-11T04:18:16;16.50;99.90
30889;DHT22;51092;50.874;7.024;2022-07-11T04:19:19;16.70;99.90
30889;DHT22;51092;50.874;7.024;2022-07-11T04:20:20;16.80;99.90
30889;DHT22;51092;50.874;7.024;2022-07-11T04:21:23;16.90;99.90
30889;DHT22;51092;50.874;7.024;2022-07-11T04:22:26;16.90;99.90
30889;DHT22;51092;50.874;7.024;2022-07-11T04:23:27;17.10;99.90
30889;DHT22;51092;50.874;7.024;2022-07-11T04:24:30;17.20;99.90
30889;DHT22;51092;50.874;7.024;2022-07-11T04:25:33;17.30;99.90
30889;DHT22;51092;50.874;7.024;2022-07-11T04:26:35;17.30;99.90
30889;DHT22;51092;50.874;7.024;2022-07-11T04:27:37;17.30;99.90
30889;DHT22;51092;50.874;7.024;2022-07-11T04:28:39;17.30;99.90
30889;DHT22;51092;50.874;7.024;2022-07-11T04:29:41;17.30;99.90
30889;DHT22;51092;50.874;7.024;2022-07-11T04:30:45;17.30;99.90
30889;DHT22;51092;50.874;7.024;2022-07-11T04:31:46;17.30;99.90
30889;DHT22;51092;50.874;7.024;2022-07-11T04:32:49;17.30;99.90
30889;DHT22;51092;50.874;7.024;2022-07-11T04:33:50;17.30;99.90
30889;DHT22;51092;50.874;7.024;2022-07-11T04:34:53;17.30;99.90
30889;DHT22;51092;50.874;7.024;2022-07-11T04:35:55;17.30;99.90
30889;DHT22;51092;50.874;7.024;2022-07-11T04:36:57;17.30;99.90
30889;DHT22;51092;50.874;7.024;2022-07-11T04:37:59;17.30;99.90
30889;DHT22;51092;50.874;7.024;2022-07-11T04:39:01;17.30;99.90
30889;DHT22;51092;50.874;7.024;2022-07-11T04:40:04;17.30;99.90
30889;DHT22;51092;50.874;7.024;2022-07-11T04:41:07;17.30;99.90
30889;DHT22;51092;50.874;7.024;2022-07-11T04:42:08;17.30;99.90
30889;DHT22;51092;50.874;7.024;2022-07-11T04:43:11;17.30;99.90
30889;DHT22;51092;50.874;7.024;2022-07-11T04:44:12;17.30;99.90
30889;DHT22;51092;50.874;7.024;2022-07-11T04:45:15;17.30;99.90
30889;DHT22;51092;50.874;7.024;2022-07-11T04:46:18;17.40;99.90
30889;DHT22;51092;50.874;7.024;2022-07-11T04:47:20;17.40;99.90
30889;DHT22;51092;50.874;7.024;2022-07-11T04:48:22;17.50;99.90
30889;DHT22;51092;50.874;7.024;2022-07-11T04:49:25;17.60;99.90
30889;DHT22;51092;50.874;7.024;2022-07-11T04:50:27;17.60;99.90
30889;DHT22;51092;50.874;7.024;2022-07-11T04:51:29;17.60;99.90
30889;DHT22;51092;50.874;7.024;2022-07-11T04:52:31;17.40;99.90
30889;DHT22;51092;50.874;7.024;2022-07-11T04:53:34;17.30;99.90
30889;DHT22;51092;50.874;7.024;2022-07-11T04:54:36;17.30;99.90
30889;DHT22;51092;50.874;7.024;2022-07-11T04:55:38;17.40;99.90
30889;DHT22;51092;50.874;7.024;2022-07-11T04:56:42;17.30;99.90
30889;DHT22;51092;50.874;7.024;2022-07-11T04:57:44;17.40;99.90
30889;DHT22;51092;50.874;7.024;2022-07-11T04:58:46;17.40;99.90
30889;DHT22;51092;50.874;7.024;2022-07-11T04:59:49;17.40;99.90
30889;DHT22;51092;50.874;7.024;2022-07-11T05:00:50;17.30;99.90
30889;DHT22;51092;50.874;7.024;2022-07-11T05:01:54;17.30;99.90
30889;DHT22;51092;50.874;7.024;2022-07-11T05:02:56;17.30;99.90
30889;DHT22;51092;50.874;7.024;2022-07-11T05:03:58;17.40;99.90
30889;DHT22;51092;50.874;7.024;2022-07-11T05:05:00;17.20;99.90
30889;DHT22;51092;50.874;7.024;2022-07-11T05:06:03;17.20;99.90
30889;DHT22;51092;50.874;7.024;2022-07-11T05:07:05;17.30;99.90
30889;DHT22;51092;50.874;7.024;2022-07-11T05:08:07;17.40;99.90
30889;DHT22;51092;50.874;7.024;2022-07-11T05:09:09;17.50;99.90
30889;DHT22;51092;50.874;7.024;2022-07-11T05:10:12;17.70;99.90
30889;DHT22;51092;50.874;7.024;2022-07-11T05:11:14;17.80;99.90
30889;DHT22;51092;50.874;7.024;2022-07-11T05:12:16;17.90;99.90
30889;DHT22;51092;50.874;7.024;2022-07-11T05:13:18;18.00;99.90
30889;DHT22;51092;50.874;7.024;2022-07-11T05:14:21;18.00;99.90
30889;DHT22;51092;50.874;7.024;2022-07-11T05:15:22;18.10;99.90
30889;DHT22;51092;50.874;7.024;2022-07-11T05:16:25;18.10;99.90
30889;DHT22;51092;50.874;7.024;2022-07-11T05:17:30;18.20;99.90
30889;DHT22;51092;50.874;7.024;2022-07-11T05:18:32;18.30;99.90
30889;DHT22;51092;50.874;7.024;2022-07-11T05:19:34;18.30;99.90
30889;DHT22;51092;50.874;7.024;2022-07-11T05:20:37;18.40;99.90
30889;DHT22;51092;50.874;7.024;2022-07-11T05:21:38;18.50;99.90
30889;DHT22;51092;50.874;7.024;2022-07-11T05:22:41;18.50;99.90
30889;DHT22;51092;50.874;7.024;2022-07-11T05:23:42;18.50;99.90
30889;DHT22;51092;50.874;7.024;2022-07-11T05:24:45;18.50;99.90
30889;DHT22;51092;50.874;7.024;2022-07-11T05:25:46;18.40;99.90
30889;DHT22;51092;50.874;7.024;2022-07-11T05:26:49;18.40;99.90
30889;DHT22;51092;50.874;7.024;2022-07-11T05:27:51;18.50;99.90
30889;DHT22;51092;50.874;7.024;2022-07-11T05:28:53;18.60;99.90
30889;DHT22;51092;50.874;7.024;2022-07-11T05:29:55;18.60;99.90
30889;DHT22;51092;50.874;7.024;2022-07-11T05:30:57;18.60;99.90
30889;DHT22;51092;50.874;7.024;2022-07-11T05:31:59;18.70;99.90
30889;DHT22;51092;50.874;7.024;2022-07-11T05:33:03;18.60;99.90
30889;DHT22;51092;50.874;7.024;2022-07-11T05:34:04;18.60;99.90
30889;DHT22;51092;50.874;7.024;2022-07-11T05:35:08;18.50;99.90
30889;DHT22;51092;50.874;7.024;2022-07-11T05:36:09;18.50;99.90
30889;DHT22;51092;50.874;7.024;2022-07-11T05:37:12;18.60;99.90
30889;DHT22;51092;50.874;7.024;2022-07-11T05:38:13;18.60;99.90
30889;DHT22;51092;50.874;7.024;2022-07-11T05:39:19;18.60;99.90
30889;DHT22;51092;50.874;7.024;2022-07-11T05:40:20;18.50;99.90
30889;DHT22;51092;50.874;7.024;2022-07-11T05:41:22;18.50;99.90
30889;DHT22;51092;50.874;7.024;2022-07-11T05:42:23;18.50;99.90
30889;DHT22;51092;50.874;7.024;2022-07-11T05:43:25;18.40;99.90
30889;DHT22;51092;50.874;7.024;2022-07-11T05:44:26;18.20;99.90
30889;DHT22;51092;50.874;7.024;2022-07-11T05:45:29;18.20;99.90
30889;DHT22;51092;50.874;7.024;2022-07-11T05:46:30;18.20;99.90
30889;DHT22;51092;50.874;7.024;2022-07-11T05:47:33;18.20;99.90
30889;DHT22;51092;50.874;7.024;2022-07-11T05:48:36;18.20;99.90
30889;DHT22;51092;50.874;7.024;2022-07-11T05:49:38;18.10;99.90
30889;DHT22;51092;50.874;7.024;2022-07-11T05:50:40;18.00;99.90
30889;DHT22;51092;50.874;7.024;2022-07-11T05:51:42;17.90;99.90
30889;DHT22;51092;50.874;7.024;2022-07-11T05:52:44;17.70;99.90
30889;DHT22;51092;50.874;7.024;2022-07-11T05:53:46;17.70;99.90
30889;DHT22;51092;50.874;7.024;2022-07-11T05:54:48;17.70;99.90
30889;DHT22;51092;50.874;7.024;2022-07-11T05:55:50;17.70;99.90
30889;DHT22;51092;50.874;7.024;2022-07-11T05:56:52;17.60;99.90
30889;DHT22;51092;50.874;7.024;2022-07-11T05:57:54;17.70;99.90
30889;DHT22;51092;50.874;7.024;2022-07-11T05:58:56;17.50;99.90
30889;DHT22;51092;50.874;7.024;2022-07-11T05:59:59;17.40;99.90
30889;DHT22;51092;50.874;7.024;2022-07-11T06:01:01;17.40;99.90
30889;DHT22;51092;50.874;7.024;2022-07-11T06:02:03;17.40;99.90
30889;DHT22;51092;50.874;7.024;2022-07-11T06:03:06;17.30;99.90
30889;DHT22;51092;50.874;7.024;2022-07-11T06:04:09;17.30;99.90
30889;DHT22;51092;50.874;7.024;2022-07-11T06:05:12;17.30;99.90
30889;DHT22;51092;50.874;7.024;2022-07-11T06:06:13;17.30;99.90
30889;DHT22;51092;50.874;7.024;2022-07-11T06:07:17;17.20;99.90
30889;DHT22;51092;50.874;7.024;2022-07-11T06:08:34;17.30;99.90
30889;DHT22;51092;50.874;7.024;2022-07-11T06:09:41;17.20;99.90
30889;DHT22;51092;50.874;7.024;2022-07-11T06:10:44;17.10;99.90
30889;DHT22;51092;50.874;7.024;2022-07-11T06:11:45;17.10;99.90
30889;DHT22;51092;50.874;7.024;2022-07-11T06:12:48;17.10;99.90
30889;DHT22;51092;50.874;7.024;2022-07-11T06:13:50;17.00;99.90
30889;DHT22;51092;50.874;7.024;2022-07-11T06:14:52;17.10;99.90
30889;DHT22;51092;50.874;7.024;2022-07-11T06:15:54;17.10;99.90
30889;DHT22;51092;50.874;7.024;2022-07-11T06:16:56;17.10;99.90
30889;DHT22;51092;50.874;7.024;2022-07-11T06:17:59;17.30;99.90
30889;DHT22;51092;50.874;7.024;2022-07-11T06:19:00;17.30;99.90
30889;DHT22;51092;50.874;7.024;2022-07-11T06:20:05;17.30;99.90
30889;DHT22;51092;50.874;7.024;2022-07-11T06:21:07;17.30;99.90
30889;DHT22;51092;50.874;7.024;2022-07-11T06:22:10;17.30;99.90
30889;DHT22;51092;50.874;7.024;2022-07-11T06:23:13;17.20;99.90
30889;DHT22;51092;50.874;7.024;2022-07-11T06:24:15;17.20;99.90
30889;DHT22;51092;50.874;7.024;2022-07-11T06:25:18;17.20;99.90
30889;DHT22;51092;50.874;7.024;2022-07-11T06:26:21;17.30;99.90
30889;DHT22;51092;50.874;7.024;2022-07-11T06:27:22;17.30;99.90
30889;DHT22;51092;50.874;7.024;2022-07-11T06:28:25;17.30;99.90
30889;DHT22;51092;50.874;7.024;2022-07-11T06:29:26;17.20;99.90
30889;DHT22;51092;50.874;7.024;2022-07-11T06:30:29;17.30;99.90
30889;DHT22;51092;50.874;7.024;2022-07-11T06:31:32;17.30;99.90
30889;DHT22;51092;50.874;7.024;2022-07-11T06:32:34;17.40;99.90
30889;DHT22;51092;50.874;7.024;2022-07-11T06:33:36;17.50;99.90
30889;DHT22;51092;50.874;7.024;2022-07-11T06:34:38;17.60;99.90